METAR Data
IDs: Format: Raw Decoded Include TAF

Data at: 0647 UTC 01 Aug 2021

ZBAA 010630Z 31006MPS 270V340 CAVOK 33/16 Q0999 NOSIG